sensor_id;sensor_type;location;lat;lon;timestamp;temperature;humidity
28823;DHT22;15961;54.678;9.110;2022-07-22T00:00:13;13.90;99.90
28823;DHT22;15961;54.678;9.110;2022-07-22T00:02:39;14.00;99.90
28823;DHT22;15961;54.678;9.110;2022-07-22T00:05:05;14.00;99.90
28823;DHT22;15961;54.678;9.110;2022-07-22T00:07:31;14.10;99.90
28823;DHT22;15961;54.678;9.110;2022-07-22T00:09:56;14.10;99.90
28823;DHT22;15961;54.678;9.110;2022-07-22T00:12:22;14.20;99.90
28823;DHT22;15961;54.678;9.110;2022-07-22T00:14:47;14.20;99.90
28823;DHT22;15961;54.678;9.110;2022-07-22T00:17:13;14.30;99.90
28823;DHT22;15961;54.678;9.110;2022-07-22T00:19:39;14.40;99.90
28823;DHT22;15961;54.678;9.110;2022-07-22T00:22:04;14.40;99.90
28823;DHT22;15961;54.678;9.110;2022-07-22T00:24:30;14.50;99.90
28823;DHT22;15961;54.678;9.110;2022-07-22T00:26:55;14.50;99.90
28823;DHT22;15961;54.678;9.110;2022-07-22T00:29:21;14.50;99.90
28823;DHT22;15961;54.678;9.110;2022-07-22T00:31:47;14.60;99.90
28823;DHT22;15961;54.678;9.110;2022-07-22T00:34:12;14.60;99.90
28823;DHT22;15961;54.678;9.110;2022-07-22T00:36:38;14.60;99.90
28823;DHT22;15961;54.678;9.110;2022-07-22T00:39:04;14.60;99.90
28823;DHT22;15961;54.678;9.110;2022-07-22T00:41:30;14.70;99.90
28823;DHT22;15961;54.678;9.110;2022-07-22T00:44:01;14.70;99.90
28823;DHT22;15961;54.678;9.110;2022-07-22T00:46:27;14.60;99.90
28823;DHT22;15961;54.678;9.110;2022-07-22T00:48:53;14.70;99.90
28823;DHT22;15961;54.678;9.110;2022-07-22T00:51:21;14.70;99.90
28823;DHT22;15961;54.678;9.110;2022-07-22T00:53:46;14.70;99.90
28823;DHT22;15961;54.678;9.110;2022-07-22T00:56:13;14.70;99.90
28823;DHT22;15961;54.678;9.110;2022-07-22T00:58:39;14.50;99.90
28823;DHT22;15961;54.678;9.110;2022-07-22T01:01:05;14.50;99.90
28823;DHT22;15961;54.678;9.110;2022-07-22T01:03:31;14.50;99.90
28823;DHT22;15961;54.678;9.110;2022-07-22T01:05:57;14.50;99.90
28823;DHT22;15961;54.678;9.110;2022-07-22T01:08:23;14.50;99.90
28823;DHT22;15961;54.678;9.110;2022-07-22T01:10:49;14.40;99.90
28823;DHT22;15961;54.678;9.110;2022-07-22T01:13:14;14.40;99.90
28823;DHT22;15961;54.678;9.110;2022-07-22T01:15:40;14.30;99.90
28823;DHT22;15961;54.678;9.110;2022-07-22T01:18:05;14.40;99.90
28823;DHT22;15961;54.678;9.110;2022-07-22T01:20:31;14.40;99.90
28823;DHT22;15961;54.678;9.110;2022-07-22T01:22:57;14.40;99.90
28823;DHT22;15961;54.678;9.110;2022-07-22T01:25:23;14.40;99.90
28823;DHT22;15961;54.678;9.110;2022-07-22T01:27:48;14.40;99.90
28823;DHT22;15961;54.678;9.110;2022-07-22T01:30:14;14.40;99.90
28823;DHT22;15961;54.678;9.110;2022-07-22T01:32:39;14.40;99.90
28823;DHT22;15961;54.678;9.110;2022-07-22T01:35:05;14.40;99.90
28823;DHT22;15961;54.678;9.110;2022-07-22T01:37:33;14.40;99.90
28823;DHT22;15961;54.678;9.110;2022-07-22T01:39:59;14.40;99.90
28823;DHT22;15961;54.678;9.110;2022-07-22T01:42:24;14.40;99.90
28823;DHT22;15961;54.678;9.110;2022-07-22T01:44:51;14.40;99.90
28823;DHT22;15961;54.678;9.110;2022-07-22T01:47:17;14.40;99.90
28823;DHT22;15961;54.678;9.110;2022-07-22T01:49:42;14.30;99.90
28823;DHT22;15961;54.678;9.110;2022-07-22T01:52:08;14.40;99.90
28823;DHT22;15961;54.678;9.110;2022-07-22T01:54:34;14.40;99.90
28823;DHT22;15961;54.678;9.110;2022-07-22T01:57:00;14.40;99.90
28823;DHT22;15961;54.678;9.110;2022-07-22T01:59:25;14.40;99.90
28823;DHT22;15961;54.678;9.110;2022-07-22T02:01:51;14.40;99.90
28823;DHT22;15961;54.678;9.110;2022-07-22T02:04:16;14.40;99.90
28823;DHT22;15961;54.678;9.110;2022-07-22T02:06:42;14.40;99.90
28823;DHT22;15961;54.678;9.110;2022-07-22T02:09:07;14.30;99.90
28823;DHT22;15961;54.678;9.110;2022-07-22T02:11:33;14.40;99.90
28823;DHT22;15961;54.678;9.110;2022-07-22T02:13:59;14.40;99.90
28823;DHT22;15961;54.678;9.110;2022-07-22T02:16:25;14.40;99.90
28823;DHT22;15961;54.678;9.110;2022-07-22T02:18:50;14.40;99.90
28823;DHT22;15961;54.678;9.110;2022-07-22T02:21:16;14.40;99.90
28823;DHT22;15961;54.678;9.110;2022-07-22T02:23:42;14.40;99.90
28823;DHT22;15961;54.678;9.110;2022-07-22T02:26:07;14.40;99.90
28823;DHT22;15961;54.678;9.110;2022-07-22T02:28:33;14.30;99.90
28823;DHT22;15961;54.678;9.110;2022-07-22T02:30:58;14.30;99.90
28823;DHT22;15961;54.678;9.110;2022-07-22T02:33:24;14.40;99.90
28823;DHT22;15961;54.678;9.110;2022-07-22T02:35:50;14.40;99.90
28823;DHT22;15961;54.678;9.110;2022-07-22T02:38:15;14.30;99.90
28823;DHT22;15961;54.678;9.110;2022-07-22T02:40:41;14.30;99.90
28823;DHT22;15961;54.678;9.110;2022-07-22T02:43:07;14.40;99.90
28823;DHT22;15961;54.678;9.110;2022-07-22T02:45:33;14.30;99.90
28823;DHT22;15961;54.678;9.110;2022-07-22T02:47:59;14.30;99.90
28823;DHT22;15961;54.678;9.110;2022-07-22T02:50:25;14.40;99.90
28823;DHT22;15961;54.678;9.110;2022-07-22T02:52:51;14.40;99.90
28823;DHT22;15961;54.678;9.110;2022-07-22T02:55:18;14.30;99.90
28823;DHT22;15961;54.678;9.110;2022-07-22T02:57:43;14.40;99.90
28823;DHT22;15961;54.678;9.110;2022-07-22T03:00:11;14.40;99.90
28823;DHT22;15961;54.678;9.110;2022-07-22T03:02:38;14.40;99.90
28823;DHT22;15961;54.678;9.110;2022-07-22T03:05:04;14.40;99.90
28823;DHT22;15961;54.678;9.110;2022-07-22T03:07:31;14.40;99.90
28823;DHT22;15961;54.678;9.110;2022-07-22T03:09:56;14.30;99.90
28823;DHT22;15961;54.678;9.110;2022-07-22T03:12:22;14.30;99.90
28823;DHT22;15961;54.678;9.110;2022-07-22T03:14:48;14.30;99.90
28823;DHT22;15961;54.678;9.110;2022-07-22T03:17:13;14.30;99.90
28823;DHT22;15961;54.678;9.110;2022-07-22T03:19:39;14.30;99.90
28823;DHT22;15961;54.678;9.110;2022-07-22T03:22:05;14.30;99.90
28823;DHT22;15961;54.678;9.110;2022-07-22T03:24:30;14.30;99.90
28823;DHT22;15961;54.678;9.110;2022-07-22T03:26:56;14.30;99.90
28823;DHT22;15961;54.678;9.110;2022-07-22T03:29:21;14.30;99.90
28823;DHT22;15961;54.678;9.110;2022-07-22T03:31:47;14.30;99.90
28823;DHT22;15961;54.678;9.110;2022-07-22T03:34:12;14.20;99.90
28823;DHT22;15961;54.678;9.110;2022-07-22T03:36:38;14.20;99.90
28823;DHT22;15961;54.678;9.110;2022-07-22T03:39:04;14.20;99.90
28823;DHT22;15961;54.678;9.110;2022-07-22T03:41:29;14.20;99.90
28823;DHT22;15961;54.678;9.110;2022-07-22T03:43:55;14.20;99.90
28823;DHT22;15961;54.678;9.110;2022-07-22T03:46:21;14.20;99.90
28823;DHT22;15961;54.678;9.110;2022-07-22T03:48:47;14.20;99.90
28823;DHT22;15961;54.678;9.110;2022-07-22T03:51:12;14.30;99.90
28823;DHT22;15961;54.678;9.110;2022-07-22T03:53:38;14.30;99.90
28823;DHT22;15961;54.678;9.110;2022-07-22T03:56:04;14.20;99.90
28823;DHT22;15961;54.678;9.110;2022-07-22T03:58:29;14.20;99.90
28823;DHT22;15961;54.678;9.110;2022-07-22T04:00:55;14.20;99.90
28823;DHT22;15961;54.678;9.110;2022-07-22T04:03:21;14.20;99.90
28823;DHT22;15961;54.678;9.110;2022-07-22T04:05:46;14.20;99.90
28823;DHT22;15961;54.678;9.110;2022-07-22T04:08:12;14.20;99.90
28823;DHT22;15961;54.678;9.110;2022-07-22T04:10:38;14.10;99.90
28823;DHT22;15961;54.678;9.110;2022-07-22T04:13:04;14.20;99.90
28823;DHT22;15961;54.678;9.110;2022-07-22T04:15:30;14.20;99.90
28823;DHT22;15961;54.678;9.110;2022-07-22T04:17:55;14.30;99.90
28823;DHT22;15961;54.678;9.110;2022-07-22T04:20:21;14.30;99.90
28823;DHT22;15961;54.678;9.110;2022-07-22T04:22:47;14.30;99.90
28823;DHT22;15961;54.678;9.110;2022-07-22T04:25:12;14.30;99.90
28823;DHT22;15961;54.678;9.110;2022-07-22T04:27:38;14.30;99.90
28823;DHT22;15961;54.678;9.110;2022-07-22T04:30:04;14.30;99.90
28823;DHT22;15961;54.678;9.110;2022-07-22T04:32:30;14.30;99.90
28823;DHT22;15961;54.678;9.110;2022-07-22T04:34:55;14.40;99.90
28823;DHT22;15961;54.678;9.110;2022-07-22T04:37:21;14.40;99.90
28823;DHT22;15961;54.678;9.110;2022-07-22T04:39:46;14.30;99.90
28823;DHT22;15961;54.678;9.110;2022-07-22T04:42:12;14.40;99.90
28823;DHT22;15961;54.678;9.110;2022-07-22T04:44:37;14.40;99.90
28823;DHT22;15961;54.678;9.110;2022-07-22T04:47:03;14.40;99.90
28823;DHT22;15961;54.678;9.110;2022-07-22T04:49:29;14.40;99.90
28823;DHT22;15961;54.678;9.110;2022-07-22T04:51:54;14.40;99.90
28823;DHT22;15961;54.678;9.110;2022-07-22T04:54:20;14.40;99.90
28823;DHT22;15961;54.678;9.110;2022-07-22T04:56:45;14.50;99.90
28823;DHT22;15961;54.678;9.110;2022-07-22T04:59:11;14.50;99.90
28823;DHT22;15961;54.678;9.110;2022-07-22T05:01:37;14.60;99.90
28823;DHT22;15961;54.678;9.110;2022-07-22T05:04:03;14.60;99.90
28823;DHT22;15961;54.678;9.110;2022-07-22T05:06:28;14.70;99.90
28823;DHT22;15961;54.678;9.110;2022-07-22T05:08:54;14.70;99.90
28823;DHT22;15961;54.678;9.110;2022-07-22T05:11:20;14.70;99.90
28823;DHT22;15961;54.678;9.110;2022-07-22T05:13:45;14.70;99.90
28823;DHT22;15961;54.678;9.110;2022-07-22T05:16:11;14.70;99.90
28823;DHT22;15961;54.678;9.110;2022-07-22T05:18:36;14.70;99.90
28823;DHT22;15961;54.678;9.110;2022-07-22T05:21:03;14.80;99.90
28823;DHT22;15961;54.678;9.110;2022-07-22T05:23:29;14.80;99.90
28823;DHT22;15961;54.678;9.110;2022-07-22T05:25:54;14.80;99.90
28823;DHT22;15961;54.678;9.110;2022-07-22T05:28:20;14.80;99.90
28823;DHT22;15961;54.678;9.110;2022-07-22T05:30:46;14.80;99.90
28823;DHT22;15961;54.678;9.110;2022-07-22T05:33:11;14.80;99.90
28823;DHT22;15961;54.678;9.110;2022-07-22T05:35:37;14.80;99.90
28823;DHT22;15961;54.678;9.110;2022-07-22T05:38:02;15.00;99.90
28823;DHT22;15961;54.678;9.110;2022-07-22T05:40:29;14.90;99.90
28823;DHT22;15961;54.678;9.110;2022-07-22T05:42:54;15.00;99.90
28823;DHT22;15961;54.678;9.110;2022-07-22T05:45:20;15.00;99.90
28823;DHT22;15961;54.678;9.110;2022-07-22T05:47:46;15.00;99.90
28823;DHT22;15961;54.678;9.110;2022-07-22T05:50:11;15.10;99.90
28823;DHT22;15961;54.678;9.110;2022-07-22T05:52:37;15.20;99.90
28823;DHT22;15961;54.678;9.110;2022-07-22T05:55:04;15.20;99.90
28823;DHT22;15961;54.678;9.110;2022-07-22T05:57:30;15.30;99.90
28823;DHT22;15961;54.678;9.110;2022-07-22T05:59:55;15.30;99.90
28823;DHT22;15961;54.678;9.110;2022-07-22T06:02:21;15.30;99.90
28823;DHT22;15961;54.678;9.110;2022-07-22T06:04:47;15.30;99.90
28823;DHT22;15961;54.678;9.110;2022-07-22T06:07:12;15.30;99.90
28823;DHT22;15961;54.678;9.110;2022-07-22T06:09:38;15.40;99.90
28823;DHT22;15961;54.678;9.110;2022-07-22T06:12:04;15.30;99.90
28823;DHT22;15961;54.678;9.110;2022-07-22T06:14:29;15.30;99.90
28823;DHT22;15961;54.678;9.110;2022-07-22T06:16:55;15.30;99.90
28823;DHT22;15961;54.678;9.110;2022-07-22T06:19:20;15.40;99.90
28823;DHT22;15961;54.678;9.110;2022-07-22T06:21:46;15.40;99.90
28823;DHT22;15961;54.678;9.110;2022-07-22T06:24:12;15.50;99.90
28823;DHT22;15961;54.678;9.110;2022-07-22T06:26:37;15.60;99.90
28823;DHT22;15961;54.678;9.110;2022-07-22T06:29:03;15.70;99.90
28823;DHT22;15961;54.678;9.110;2022-07-22T06:31:29;15.70;99.90
28823;DHT22;15961;54.678;9.110;2022-07-22T06:33:54;15.70;99.90
28823;DHT22;15961;54.678;9.110;2022-07-22T06:36:20;15.70;99.90
28823;DHT22;15961;54.678;9.110;2022-07-22T06:38:45;15.70;99.90
28823;DHT22;15961;54.678;9.110;2022-07-22T06:41:11;15.90;99.90
28823;DHT22;15961;54.678;9.110;2022-07-22T06:43:38;15.90;99.90
28823;DHT22;15961;54.678;9.110;2022-07-22T06:46:05;16.00;99.90
28823;DHT22;15961;54.678;9.110;2022-07-22T06:48:30;15.80;99.90
28823;DHT22;15961;54.678;9.110;2022-07-22T06:50:56;16.10;99.90
28823;DHT22;15961;54.678;9.110;2022-07-22T06:53:21;16.00;99.90
28823;DHT22;15961;54.678;9.110;2022-07-22T06:55:47;16.00;99.90
28823;DHT22;15961;54.678;9.110;2022-07-22T06:58:13;15.90;99.90
28823;DHT22;15961;54.678;9.110;2022-07-22T07:00:38;16.00;99.90
28823;DHT22;15961;54.678;9.110;2022-07-22T07:03:04;15.90;99.90
28823;DHT22;15961;54.678;9.110;2022-07-22T07:05:30;15.90;99.90
28823;DHT22;15961;54.678;9.110;2022-07-22T07:07:56;15.80;99.90
28823;DHT22;15961;54.678;9.110;2022-07-22T07:10:22;15.70;99.90
28823;DHT22;15961;54.678;9.110;2022-07-22T07:12:47;15.70;99.90
28823;DHT22;15961;54.678;9.110;2022-07-22T07:15:13;15.70;99.90
28823;DHT22;15961;54.678;9.110;2022-07-22T07:17:39;15.70;99.90
28823;DHT22;15961;54.678;9.110;2022-07-22T07:20:06;15.70;99.90
28823;DHT22;15961;54.678;9.110;2022-07-22T07:22:32;15.80;99.90
28823;DHT22;15961;54.678;9.110;2022-07-22T07:25:04;15.70;99.90
28823;DHT22;15961;54.678;9.110;2022-07-22T07:27:31;15.70;99.90
28823;DHT22;15961;54.678;9.110;2022-07-22T07:29:56;15.70;99.90
28823;DHT22;15961;54.678;9.110;2022-07-22T07:32:22;15.60;99.90
28823;DHT22;15961;54.678;9.110;2022-07-22T07:34:48;15.80;99.90
28823;DHT22;15961;54.678;9.110;2022-07-22T07:37:13;15.80;99.90
28823;DHT22;15961;54.678;9.110;2022-07-22T07:39:39;15.80;99.90
28823;DHT22;15961;54.678;9.110;2022-07-22T07:42:05;15.90;99.90
28823;DHT22;15961;54.678;9.110;2022-07-22T07:44:30;16.10;99.90
28823;DHT22;15961;54.678;9.110;2022-07-22T07:46:56;16.20;99.90
28823;DHT22;15961;54.678;9.110;2022-07-22T07:49:21;16.30;99.90
28823;DHT22;15961;54.678;9.110;2022-07-22T07:51:47;16.30;99.90
28823;DHT22;15961;54.678;9.110;2022-07-22T07:54:12;16.20;99.90
28823;DHT22;15961;54.678;9.110;2022-07-22T07:56:38;16.20;99.90
28823;DHT22;15961;54.678;9.110;2022-07-22T07:59:04;16.20;99.90
28823;DHT22;15961;54.678;9.110;2022-07-22T08:01:29;16.30;99.90
28823;DHT22;15961;54.678;9.110;2022-07-22T08:03:55;16.50;99.90
28823;DHT22;15961;54.678;9.110;2022-07-22T08:06:20;16.70;99.90
28823;DHT22;15961;54.678;9.110;2022-07-22T08:08:46;16.70;99.90
28823;DHT22;15961;54.678;9.110;2022-07-22T08:11:11;16.60;99.90
28823;DHT22;15961;54.678;9.110;2022-07-22T08:13:37;16.40;99.90
28823;DHT22;15961;54.678;9.110;2022-07-22T08:16:03;16.30;99.90
28823;DHT22;15961;54.678;9.110;2022-07-22T08:18:29;16.20;99.90
28823;DHT22;15961;54.678;9.110;2022-07-22T08:20:55;16.20;99.90
28823;DHT22;15961;54.678;9.110;2022-07-22T08:23:21;16.10;99.90
28823;DHT22;15961;54.678;9.110;2022-07-22T08:25:47;16.10;99.90
28823;DHT22;15961;54.678;9.110;2022-07-22T08:28:13;16.10;99.90
28823;DHT22;15961;54.678;9.110;2022-07-22T08:30:39;16.20;99.90
28823;DHT22;15961;54.678;9.110;2022-07-22T08:33:06;16.30;99.90
28823;DHT22;15961;54.678;9.110;2022-07-22T08:35:31;16.50;99.90
28823;DHT22;15961;54.678;9.110;2022-07-22T08:37:57;16.60;99.90
28823;DHT22;15961;54.678;9.110;2022-07-22T08:40:23;16.70;99.90
28823;DHT22;15961;54.678;9.110;2022-07-22T08:42:50;16.90;99.90
28823;DHT22;15961;54.678;9.110;2022-07-22T08:45:16;16.90;99.90
28823;DHT22;15961;54.678;9.110;2022-07-22T08:47:47;16.80;99.90
28823;DHT22;15961;54.678;9.110;2022-07-22T08:50:13;16.90;99.90
28823;DHT22;15961;54.678;9.110;2022-07-22T08:52:38;16.80;99.90
28823;DHT22;15961;54.678;9.110;2022-07-22T08:55:05;16.60;99.90
28823;DHT22;15961;54.678;9.110;2022-07-22T08:57:31;16.60;99.90
28823;DHT22;15961;54.678;9.110;2022-07-22T08:59:58;16.50;99.90
28823;DHT22;15961;54.678;9.110;2022-07-22T09:02:24;16.30;99.90
28823;DHT22;15961;54.678;9.110;2022-07-22T09:04:54;16.20;99.90
28823;DHT22;15961;54.678;9.110;2022-07-22T09:07:46;16.30;99.90
28823;DHT22;15961;54.678;9.110;2022-07-22T09:10:15;16.20;99.90
28823;DHT22;15961;54.678;9.110;2022-07-22T09:12:59;16.30;99.90
28823;DHT22;15961;54.678;9.110;2022-07-22T09:15:36;16.50;99.90
28823;DHT22;15961;54.678;9.110;2022-07-22T09:18:03;16.80;99.90
28823;DHT22;15961;54.678;9.110;2022-07-22T09:20:29;17.00;99.90
28823;DHT22;15961;54.678;9.110;2022-07-22T09:22:55;17.30;99.90
28823;DHT22;15961;54.678;9.110;2022-07-22T09:25:41;17.60;99.90
28823;DHT22;15961;54.678;9.110;2022-07-22T09:30:35;17.50;99.90
28823;DHT22;15961;54.678;9.110;2022-07-22T09:33:01;17.50;99.90
28823;DHT22;15961;54.678;9.110;2022-07-22T09:35:28;17.40;99.90
28823;DHT22;15961;54.678;9.110;2022-07-22T09:38:02;17.30;99.90
28823;DHT22;15961;54.678;9.110;2022-07-22T09:40:34;17.20;99.90
28823;DHT22;15961;54.678;9.110;2022-07-22T09:43:03;17.40;99.90
28823;DHT22;15961;54.678;9.110;2022-07-22T09:45:30;17.40;99.90
28823;DHT22;15961;54.678;9.110;2022-07-22T09:47:58;17.30;99.90
28823;DHT22;15961;54.678;9.110;2022-07-22T09:50:31;17.20;99.90
28823;DHT22;15961;54.678;9.110;2022-07-22T09:52:59;17.50;99.90
28823;DHT22;15961;54.678;9.110;2022-07-22T09:55:26;17.60;99.90
28823;DHT22;15961;54.678;9.110;2022-07-22T09:57:53;17.60;99.90
28823;DHT22;15961;54.678;9.110;2022-07-22T10:00:22;17.70;99.90
28823;DHT22;15961;54.678;9.110;2022-07-22T10:02:51;17.70;99.90
28823;DHT22;15961;54.678;9.110;2022-07-22T10:05:22;17.70;99.90
28823;DHT22;15961;54.678;9.110;2022-07-22T10:07:50;17.70;99.90
28823;DHT22;15961;54.678;9.110;2022-07-22T10:10:18;17.50;99.90
28823;DHT22;15961;54.678;9.110;2022-07-22T10:12:47;17.50;99.90
28823;DHT22;15961;54.678;9.110;2022-07-22T10:15:14;17.60;99.90
28823;DHT22;15961;54.678;9.110;2022-07-22T10:17:49;17.70;99.90
28823;DHT22;15961;54.678;9.110;2022-07-22T10:20:26;17.60;99.90
28823;DHT22;15961;54.678;9.110;2022-07-22T10:23:00;17.60;99.90
28823;DHT22;15961;54.678;9.110;2022-07-22T10:25:28;17.80;99.90
28823;DHT22;15961;54.678;9.110;2022-07-22T10:30:28;17.90;99.90
28823;DHT22;15961;54.678;9.110;2022-07-22T10:33:16;17.70;99.90
28823;DHT22;15961;54.678;9.110;2022-07-22T10:38:09;17.30;99.90
28823;DHT22;15961;54.678;9.110;2022-07-22T10:40:55;17.10;99.90
28823;DHT22;15961;54.678;9.110;2022-07-22T10:46:09;17.10;99.90
28823;DHT22;15961;54.678;9.110;2022-07-22T10:53:43;17.30;99.90
28823;DHT22;15961;54.678;9.110;2022-07-22T10:58:44;17.50;99.90
28823;DHT22;15961;54.678;9.110;2022-07-22T11:01:12;17.50;99.90
28823;DHT22;15961;54.678;9.110;2022-07-22T11:03:40;17.80;99.90
28823;DHT22;15961;54.678;9.110;2022-07-22T11:06:16;17.80;99.90
28823;DHT22;15961;54.678;9.110;2022-07-22T11:08:44;18.00;99.90
28823;DHT22;15961;54.678;9.110;2022-07-22T11:11:09;17.90;99.90
28823;DHT22;15961;54.678;9.110;2022-07-22T11:13:38;17.50;99.90
28823;DHT22;15961;54.678;9.110;2022-07-22T11:16:24;17.30;99.90
28823;DHT22;15961;54.678;9.110;2022-07-22T11:19:08;17.10;99.90
28823;DHT22;15961;54.678;9.110;2022-07-22T11:21:34;17.10;99.90
28823;DHT22;15961;54.678;9.110;2022-07-22T11:24:02;17.10;99.90
28823;DHT22;15961;54.678;9.110;2022-07-22T11:26:49;17.20;99.90
28823;DHT22;15961;54.678;9.110;2022-07-22T11:29:23;17.20;99.90
28823;DHT22;15961;54.678;9.110;2022-07-22T11:31:49;17.20;99.90
28823;DHT22;15961;54.678;9.110;2022-07-22T11:34:16;17.20;99.90
28823;DHT22;15961;54.678;9.110;2022-07-22T11:36:44;17.10;99.90
28823;DHT22;15961;54.678;9.110;2022-07-22T11:39:11;17.20;99.90
28823;DHT22;15961;54.678;9.110;2022-07-22T11:41:37;17.20;99.90
28823;DHT22;15961;54.678;9.110;2022-07-22T11:44:04;17.10;99.90
28823;DHT22;15961;54.678;9.110;2022-07-22T11:46:41;17.10;99.90
28823;DHT22;15961;54.678;9.110;2022-07-22T11:49:08;17.10;99.90
28823;DHT22;15961;54.678;9.110;2022-07-22T11:51:36;17.10;99.90
28823;DHT22;15961;54.678;9.110;2022-07-22T11:54:04;17.10;99.90
28823;DHT22;15961;54.678;9.110;2022-07-22T11:56:30;17.20;99.90
28823;DHT22;15961;54.678;9.110;2022-07-22T11:58:56;17.20;99.90
28823;DHT22;15961;54.678;9.110;2022-07-22T12:01:25;17.20;99.90
28823;DHT22;15961;54.678;9.110;2022-07-22T12:04:01;17.50;99.90
28823;DHT22;15961;54.678;9.110;2022-07-22T12:06:28;17.30;99.90
28823;DHT22;15961;54.678;9.110;2022-07-22T12:09:17;17.20;99.90
28823;DHT22;15961;54.678;9.110;2022-07-22T12:11:44;17.20;99.90
28823;DHT22;15961;54.678;9.110;2022-07-22T12:16:38;17.40;99.90
28823;DHT22;15961;54.678;9.110;2022-07-22T12:19:08;17.40;99.90
28823;DHT22;15961;54.678;9.110;2022-07-22T12:21:59;17.40;99.90
28823;DHT22;15961;54.678;9.110;2022-07-22T12:24:42;17.40;99.90
28823;DHT22;15961;54.678;9.110;2022-07-22T12:27:12;17.50;99.90
28823;DHT22;15961;54.678;9.110;2022-07-22T12:34:36;17.40;99.90
28823;DHT22;15961;54.678;9.110;2022-07-22T12:37:52;17.40;99.90
28823;DHT22;15961;54.678;9.110;2022-07-22T12:40:22;17.30;99.90
28823;DHT22;15961;54.678;9.110;2022-07-22T12:45:27;17.10;99.90
28823;DHT22;15961;54.678;9.110;2022-07-22T12:53:18;17.10;99.90
28823;DHT22;15961;54.678;9.110;2022-07-22T12:55:45;17.10;99.90
28823;DHT22;15961;54.678;9.110;2022-07-22T12:58:11;17.10;99.90
28823;DHT22;15961;54.678;9.110;2022-07-22T13:00:52;16.90;99.90
28823;DHT22;15961;54.678;9.110;2022-07-22T13:03:19;16.80;99.90
28823;DHT22;15961;54.678;9.110;2022-07-22T13:05:47;16.70;99.90
28823;DHT22;15961;54.678;9.110;2022-07-22T13:08:13;16.60;99.90
28823;DHT22;15961;54.678;9.110;2022-07-22T13:10:38;16.70;99.90
28823;DHT22;15961;54.678;9.110;2022-07-22T13:13:04;16.70;99.90
28823;DHT22;15961;54.678;9.110;2022-07-22T13:15:29;17.00;99.90
28823;DHT22;15961;54.678;9.110;2022-07-22T13:17:55;17.20;99.90
28823;DHT22;15961;54.678;9.110;2022-07-22T13:20:20;17.20;99.90
28823;DHT22;15961;54.678;9.110;2022-07-22T13:22:46;17.30;99.90
28823;DHT22;15961;54.678;9.110;2022-07-22T13:25:12;17.30;99.90
28823;DHT22;15961;54.678;9.110;2022-07-22T13:27:38;17.30;99.90
28823;DHT22;15961;54.678;9.110;2022-07-22T13:30:05;17.40;99.90
28823;DHT22;15961;54.678;9.110;2022-07-22T13:32:31;17.60;99.90
28823;DHT22;15961;54.678;9.110;2022-07-22T13:34:56;17.50;99.90
28823;DHT22;15961;54.678;9.110;2022-07-22T13:37:22;17.50;99.90
28823;DHT22;15961;54.678;9.110;2022-07-22T13:39:48;17.50;99.90
28823;DHT22;15961;54.678;9.110;2022-07-22T13:42:17;17.50;99.90
28823;DHT22;15961;54.678;9.110;2022-07-22T13:44:44;17.30;99.90
28823;DHT22;15961;54.678;9.110;2022-07-22T13:47:10;17.20;99.90
28823;DHT22;15961;54.678;9.110;2022-07-22T13:49:36;17.10;99.90
28823;DHT22;15961;54.678;9.110;2022-07-22T13:52:03;17.10;99.90
28823;DHT22;15961;54.678;9.110;2022-07-22T13:54:28;17.20;99.90
28823;DHT22;15961;54.678;9.110;2022-07-22T13:56:54;17.30;99.90
28823;DHT22;15961;54.678;9.110;2022-07-22T13:59:20;17.70;99.90
28823;DHT22;15961;54.678;9.110;2022-07-22T14:01:45;17.80;99.90
28823;DHT22;15961;54.678;9.110;2022-07-22T14:04:11;17.90;99.90
28823;DHT22;15961;54.678;9.110;2022-07-22T14:06:37;17.90;99.90
28823;DHT22;15961;54.678;9.110;2022-07-22T14:09:03;17.80;99.90
28823;DHT22;15961;54.678;9.110;2022-07-22T14:11:29;17.60;99.90
28823;DHT22;15961;54.678;9.110;2022-07-22T14:13:55;17.40;99.90
28823;DHT22;15961;54.678;9.110;2022-07-22T14:16:20;17.50;99.90
28823;DHT22;15961;54.678;9.110;2022-07-22T14:19:09;17.50;99.90
28823;DHT22;15961;54.678;9.110;2022-07-22T14:21:36;17.40;99.90
28823;DHT22;15961;54.678;9.110;2022-07-22T14:24:02;17.20;99.90
28823;DHT22;15961;54.678;9.110;2022-07-22T14:26:29;17.20;99.90
28823;DHT22;15961;54.678;9.110;2022-07-22T14:28:55;17.10;99.90
28823;DHT22;15961;54.678;9.110;2022-07-22T14:31:20;17.10;99.90
28823;DHT22;15961;54.678;9.110;2022-07-22T14:33:47;16.80;99.90
28823;DHT22;15961;54.678;9.110;2022-07-22T14:36:12;16.80;99.90
28823;DHT22;15961;54.678;9.110;2022-07-22T14:38:38;16.80;99.90
28823;DHT22;15961;54.678;9.110;2022-07-22T14:41:04;16.90;99.90
28823;DHT22;15961;54.678;9.110;2022-07-22T14:43:29;16.90;99.90
28823;DHT22;15961;54.678;9.110;2022-07-22T14:45:55;16.90;99.90
28823;DHT22;15961;54.678;9.110;2022-07-22T14:48:21;17.00;99.90
28823;DHT22;15961;54.678;9.110;2022-07-22T14:50:46;16.90;99.90
28823;DHT22;15961;54.678;9.110;2022-07-22T14:53:12;16.90;99.90
28823;DHT22;15961;54.678;9.110;2022-07-22T14:55:38;16.80;99.90
28823;DHT22;15961;54.678;9.110;2022-07-22T14:58:04;16.70;99.90
28823;DHT22;15961;54.678;9.110;2022-07-22T15:00:29;16.70;99.90
28823;DHT22;15961;54.678;9.110;2022-07-22T15:02:55;16.70;99.90
28823;DHT22;15961;54.678;9.110;2022-07-22T15:05:20;16.70;99.90
28823;DHT22;15961;54.678;9.110;2022-07-22T15:07:46;16.60;99.90
28823;DHT22;15961;54.678;9.110;2022-07-22T15:10:11;16.60;99.90
28823;DHT22;15961;54.678;9.110;2022-07-22T15:12:37;16.50;99.90
28823;DHT22;15961;54.678;9.110;2022-07-22T15:15:03;16.50;99.90
28823;DHT22;15961;54.678;9.110;2022-07-22T15:17:34;16.60;99.90
28823;DHT22;15961;54.678;9.110;2022-07-22T15:20:00;16.50;99.90
28823;DHT22;15961;54.678;9.110;2022-07-22T15:22:25;16.60;99.90
28823;DHT22;15961;54.678;9.110;2022-07-22T15:24:53;16.50;99.90
28823;DHT22;15961;54.678;9.110;2022-07-22T15:27:19;16.50;99.90
28823;DHT22;15961;54.678;9.110;2022-07-22T15:29:45;16.50;99.90
28823;DHT22;15961;54.678;9.110;2022-07-22T15:32:11;16.60;99.90
28823;DHT22;15961;54.678;9.110;2022-07-22T15:34:37;16.60;99.90
28823;DHT22;15961;54.678;9.110;2022-07-22T15:37:03;16.60;99.90
28823;DHT22;15961;54.678;9.110;2022-07-22T15:39:28;16.60;99.90
28823;DHT22;15961;54.678;9.110;2022-07-22T15:41:54;16.70;99.90
28823;DHT22;15961;54.678;9.110;2022-07-22T15:44:20;16.60;99.90
28823;DHT22;15961;54.678;9.110;2022-07-22T15:46:46;16.60;99.90
28823;DHT22;15961;54.678;9.110;2022-07-22T15:49:13;16.60;99.90
28823;DHT22;15961;54.678;9.110;2022-07-22T15:51:39;16.50;99.90
28823;DHT22;15961;54.678;9.110;2022-07-22T15:54:04;16.50;99.90
28823;DHT22;15961;54.678;9.110;2022-07-22T15:56:30;16.40;99.90
28823;DHT22;15961;54.678;9.110;2022-07-22T15:58:56;16.40;99.90
28823;DHT22;15961;54.678;9.110;2022-07-22T16:01:40;16.40;99.90